Time;durP1;ratioP1;P1;durP2;ratioP2;P2;SDS_P1;SDS_P2;PMS_P1;PMS_P2;Temp;Humidity;BMP_temperature;BMP_pressure;BME280_temperature;BME280_humidity;BME280_pressure;Samples;Min_cycle;Max_cycle;Signal;HPM_P1;HPM_P2
2023/07/12 00:00:40;;;;;;;10.25;9.20;;;;;;;23.01;100.00;98925.81;5110490;28;20191;-75
2023/07/12 00:03:07;;;;;;;10.57;9.57;;;;;;;22.95;100.00;98930.63;5113595;28;20209;-75
2023/07/12 00:05:34;;;;;;;9.77;8.98;;;;;;;22.92;100.00;98933.19;5110516;28;20223;-76
2023/07/12 00:08:02;;;;;;;10.73;9.73;;;;;;;22.90;100.00;98919.84;5114315;28;20627;-75
2023/07/12 00:10:35;;;;;;;10.35;9.45;;;;;;;22.89;100.00;98920.97;5112062;28;20679;-75
2023/07/12 00:13:02;;;;;;;10.25;9.27;;;;;;;22.85;100.00;98927.38;5111681;28;20195;-75
2023/07/12 00:15:30;;;;;;;9.93;9.02;;;;;;;22.81;100.00;98932.69;5114725;28;20223;-75
2023/07/12 00:17:57;;;;;;;10.25;9.40;;;;;;;22.76;100.00;98925.44;5115008;28;20202;-77
2023/07/12 00:20:30;;;;;;;10.50;9.55;;;;;;;22.74;100.00;98927.66;5113706;28;20196;-76
2023/07/12 00:22:57;;;;;;;10.43;9.50;;;;;;;22.73;100.00;98926.06;5114601;28;20249;-74
2023/07/12 00:25:27;;;;;;;9.93;8.98;;;;;;;22.73;100.00;98933.44;5095680;28;20231;-76
2023/07/12 00:27:54;;;;;;;10.10;9.20;;;;;;;22.67;100.00;98927.31;5095330;28;20188;-76
2023/07/12 00:30:25;;;;;;;9.98;9.07;;;;;;;22.62;100.00;98924.72;5114811;28;20612;-75
2023/07/12 00:32:53;;;;;;;9.55;8.73;;;;;;;22.54;100.00;98917.28;5096325;28;20294;-74
2023/07/12 00:35:24;;;;;;;10.15;9.15;;;;;;;22.52;100.00;98929.63;5107789;28;20186;-77
2023/07/12 00:37:52;;;;;;;10.38;9.38;;;;;;;22.47;100.00;98918.84;5114319;28;20204;-75
2023/07/12 00:40:22;;;;;;;9.40;8.70;;;;;;;22.45;100.00;98924.63;5102552;28;20892;-74
2023/07/12 00:42:54;;;;;;;10.52;9.52;;;;;;;22.39;100.00;98913.06;5086567;28;20200;-74
2023/07/12 00:45:21;;;;;;;10.25;9.27;;;;;;;22.36;100.00;98896.50;5096149;28;20255;-75
2023/07/12 00:47:48;;;;;;;10.35;9.35;;;;;;;22.28;100.00;98884.44;5114325;28;20223;-75
2023/07/12 00:50:19;;;;;;;12.65;9.82;;;;;;;22.19;100.00;98875.41;5095977;28;20206;-76
2023/07/12 00:52:46;;;;;;;10.77;9.60;;;;;;;22.03;100.00;98863.25;5107445;28;20214;-74
2023/07/12 00:55:51;;;;;;;10.38;9.40;;;;;;;21.94;100.00;98865.94;5078391;28;20209;-75
2023/07/12 00:58:17;;;;;;;10.55;9.55;;;;;;;21.82;100.00;98859.44;5113678;28;20702;-74
2023/07/12 01:00:44;;;;;;;10.80;9.85;;;;;;;21.78;100.00;98856.53;5095672;28;20274;-75
2023/07/12 01:03:12;;;;;;;10.55;9.65;;;;;;;21.77;100.00;98860.38;5113472;28;20205;-75
2023/07/12 01:05:43;;;;;;;10.60;9.63;;;;;;;21.73;100.00;98862.13;5096003;28;20235;-75
2023/07/12 01:08:13;;;;;;;10.70;9.80;;;;;;;21.73;100.00;98872.22;5066744;28;20210;-75
2023/07/12 01:10:40;;;;;;;11.23;10.23;;;;;;;21.75;100.00;98872.69;5088752;28;20740;-75
2023/07/12 01:13:08;;;;;;;11.55;10.43;;;;;;;21.75;100.00;98876.22;5113640;28;20257;-75
2023/07/12 01:15:35;;;;;;;10.93;9.93;;;;;;;21.75;100.00;98867.25;5095677;28;20291;-75
2023/07/12 01:18:03;;;;;;;10.63;9.77;;;;;;;21.77;100.00;98868.56;5089779;28;20199;-78
2023/07/12 01:20:38;;;;;;;10.43;9.52;;;;;;;21.75;100.00;98878.13;5089824;28;20253;-74
2023/07/12 01:23:05;;;;;;;11.63;10.43;;;;;;;21.68;100.00;98875.88;5091234;28;20623;-78
2023/07/12 01:25:39;;;;;;;10.77;9.88;;;;;;;21.66;100.00;98872.63;5095640;28;20192;-75
2023/07/12 01:28:06;;;;;;;10.95;10.05;;;;;;;21.65;100.00;98873.75;5113370;28;20211;-77
2023/07/12 01:30:37;;;;;;;10.60;9.70;;;;;;;21.69;100.00;98896.56;5092317;28;20188;-76
2023/07/12 01:33:04;;;;;;;10.38;9.38;;;;;;;21.73;100.00;98902.19;5111895;28;20225;-77
2023/07/12 01:35:31;;;;;;;10.55;9.50;;;;;;;21.73;100.00;98918.56;5112869;28;20648;-77
2023/07/12 01:37:58;;;;;;;9.65;8.85;;;;;;;21.74;100.00;99001.97;5105111;28;20267;-76
2023/07/12 01:40:25;;;;;;;11.40;10.32;;;;;;;21.92;100.00;99156.44;5111963;28;20203;-76
2023/07/12 01:42:52;;;;;;;12.63;11.43;;;;;;;22.27;100.00;99165.78;5108262;28;20226;-74
2023/07/12 01:45:19;;;;;;;13.10;12.00;;;;;;;22.55;100.00;99158.31;5113314;28;20663;-75
2023/07/12 01:47:47;;;;;;;13.30;11.13;;;;;;;22.46;100.00;99138.31;5092106;28;20214;-74
2023/07/12 01:50:14;;;;;;;10.63;9.57;;;;;;;22.77;100.00;99122.84;5107197;28;20196;-74
2023/07/12 01:52:40;;;;;;;12.82;6.63;;;;;;;23.45;100.00;99129.81;5110517;28;20685;-75
2023/07/12 01:55:07;;;;;;;12.57;7.20;;;;;;;23.75;100.00;99133.63;5112754;28;20212;-75
2023/07/12 01:57:34;;;;;;;12.23;5.65;;;;;;;23.95;100.00;99114.66;5112950;28;20572;-75
2023/07/12 02:00:01;;;;;;;13.73;5.63;;;;;;;24.25;100.00;99085.59;5113119;28;20188;-74
2023/07/12 02:02:41;;;;;;;9.50;4.63;;;;;;;24.59;100.00;99100.38;5108959;28;20200;-75
2023/07/12 02:05:08;;;;;;;12.32;4.47;;;;;;;24.54;100.00;99098.63;5109352;28;20756;-75
2023/07/12 02:07:35;;;;;;;9.23;4.25;;;;;;;24.73;100.00;99098.25;5110929;28;20190;-75
2023/07/12 02:10:12;;;;;;;9.32;3.83;;;;;;;24.77;100.00;99099.22;5110425;28;20191;-75
2023/07/12 02:12:39;;;;;;;10.25;3.42;;;;;;;24.75;100.00;99102.28;5091074;28;20241;-75
2023/07/12 02:15:07;;;;;;;10.75;3.15;;;;;;;24.73;100.00;99106.47;5107063;28;20240;-77
2023/07/12 02:17:33;;;;;;;9.25;3.28;;;;;;;24.62;100.00;99116.97;5094323;28;20222;-75
2023/07/12 02:20:00;;;;;;;7.65;2.83;;;;;;;24.76;100.00;99092.13;5110361;28;20274;-75
2023/07/12 02:22:33;;;;;;;8.27;2.58;;;;;;;24.87;100.00;99102.44;5112420;28;20274;-76
2023/07/12 02:25:00;;;;;;;6.53;2.78;;;;;;;24.83;100.00;99082.25;5110686;28;20253;-75
2023/07/12 02:27:27;;;;;;;6.05;2.20;;;;;;;24.85;100.00;99085.50;5112092;28;20624;-75
2023/07/12 02:29:54;;;;;;;5.47;2.22;;;;;;;24.74;100.00;99086.97;5088253;28;20296;-75
2023/07/12 02:32:20;;;;;;;4.78;2.20;;;;;;;24.64;100.00;99075.53;5109542;28;20299;-76
2023/07/12 02:34:48;;;;;;;9.48;2.10;;;;;;;24.48;100.00;99076.06;5112475;28;20221;-77
2023/07/12 02:37:16;;;;;;;6.18;1.73;;;;;;;24.53;100.00;99100.53;5102175;28;20282;-76
2023/07/12 02:39:45;;;;;;;7.50;1.90;;;;;;;24.49;100.00;99101.53;5111991;28;20664;-76
2023/07/12 02:42:11;;;;;;;4.18;1.60;;;;;;;24.47;100.00;99106.50;5111023;28;20233;-75
2023/07/12 02:44:39;;;;;;;6.10;1.55;;;;;;;24.63;100.00;99115.84;5101861;28;20186;-76
2023/07/12 02:47:10;;;;;;;4.07;1.45;;;;;;;24.63;100.00;99121.31;5111240;28;20594;-76
2023/07/12 02:49:37;;;;;;;3.80;1.30;;;;;;;24.63;100.00;99126.00;5111168;28;20199;-77
2023/07/12 02:52:05;;;;;;;5.75;1.50;;;;;;;24.57;100.00;99117.13;5111465;28;20309;-75
2023/07/12 02:54:32;;;;;;;4.47;1.15;;;;;;;24.54;100.00;99115.81;5107919;28;20244;-75
2023/07/12 02:56:59;;;;;;;4.90;1.40;;;;;;;24.52;100.00;99106.34;5111297;28;20219;-75
2023/07/12 02:59:27;;;;;;;3.88;1.38;;;;;;;24.53;100.00;99094.25;5093520;28;20209;-75
2023/07/12 03:01:54;;;;;;;6.90;1.50;;;;;;;24.23;100.00;99089.75;5111641;28;20215;-75
2023/07/12 03:04:21;;;;;;;4.80;1.27;;;;;;;24.22;100.00;99088.94;5108781;28;20712;-75
2023/07/12 03:06:48;;;;;;;3.08;1.27;;;;;;;24.23;100.00;99093.31;5104994;28;20201;-76
2023/07/12 03:09:15;;;;;;;1.63;1.02;;;;;;;24.34;100.00;99072.69;5108868;28;20649;-74
2023/07/12 03:11:45;;;;;;;3.22;1.30;;;;;;;24.25;100.00;99060.94;5106386;28;20207;-75
2023/07/12 03:14:16;;;;;;;2.33;1.20;;;;;;;24.24;100.00;99062.06;5086814;28;20602;-75
2023/07/12 03:16:43;;;;;;;3.17;1.30;;;;;;;24.12;100.00;99056.41;5103507;28;20207;-74
2023/07/12 03:19:10;;;;;;;3.00;1.40;;;;;;;24.07;100.00;99059.31;5105810;28;20892;-75
2023/07/12 03:21:37;;;;;;;3.47;1.20;;;;;;;23.97;100.00;99052.22;5105852;28;20192;-76
2023/07/12 03:24:05;;;;;;;1.52;1.10;;;;;;;23.92;100.00;99044.19;5112101;28;20191;-75
2023/07/12 03:26:32;;;;;;;1.83;1.33;;;;;;;23.89;100.00;99047.53;5111734;28;20284;-75
2023/07/12 03:28:59;;;;;;;1.95;1.30;;;;;;;23.84;100.00;99046.91;5109950;28;20190;-74
2023/07/12 03:31:28;;;;;;;2.25;1.10;;;;;;;23.74;100.00;99041.75;5093648;28;20203;-74
2023/07/12 03:33:56;;;;;;;3.22;1.23;;;;;;;23.66;100.00;99035.94;5108340;28;20312;-78
2023/07/12 03:36:28;;;;;;;2.00;1.23;;;;;;;23.65;100.00;99026.16;5111713;28;20252;-75
2023/07/12 03:38:56;;;;;;;3.60;1.10;;;;;;;23.65;100.00;99020.69;5111666;28;20227;-78
2023/07/12 03:41:23;;;;;;;3.05;1.48;;;;;;;23.68;100.00;99020.03;5103242;28;20278;-75
2023/07/12 03:43:49;;;;;;;2.13;1.35;;;;;;;23.71;100.00;99018.56;5089993;28;20204;-80
2023/07/12 03:46:16;;;;;;;2.78;1.23;;;;;;;23.78;100.00;99016.19;5106210;28;20806;-76
2023/07/12 03:48:44;;;;;;;3.40;1.40;;;;;;;23.87;100.00;99002.50;5111503;28;20206;-75
2023/07/12 03:51:11;;;;;;;1.58;1.23;;;;;;;23.99;100.00;98983.50;5111052;28;20227;-74
2023/07/12 03:53:38;;;;;;;2.25;1.50;;;;;;;24.24;100.00;98973.69;5111367;28;20732;-75
2023/07/12 03:56:05;;;;;;;1.85;1.13;;;;;;;24.42;100.00;98967.84;5111074;28;20226;-75
2023/07/12 03:58:34;;;;;;;2.83;1.10;;;;;;;24.55;100.00;98968.75;5111339;28;20191;-77
2023/07/12 04:01:03;;;;;;;2.80;1.30;;;;;;;24.71;100.00;98949.88;5114683;28;20661;-75
2023/07/12 04:03:31;;;;;;;4.32;1.27;;;;;;;24.88;100.00;98945.13;5114906;28;20199;-76
2023/07/12 04:05:57;;;;;;;4.22;1.20;;;;;;;25.03;100.00;98957.47;5113966;28;20247;-75
2023/07/12 04:08:24;;;;;;;3.42;1.33;;;;;;;25.19;100.00;98946.75;5107756;28;20192;-74
2023/07/12 04:10:52;;;;;;;2.13;1.23;;;;;;;25.77;100.00;98957.63;5110951;28;20197;-76
2023/07/12 04:13:19;;;;;;;2.80;1.40;;;;;;;26.25;100.00;98950.75;5108167;28;20224;-75
2023/07/12 04:15:46;;;;;;;2.65;1.42;;;;;;;26.27;100.00;98948.47;5096892;28;20218;-76
2023/07/12 04:18:13;;;;;;;1.85;1.40;;;;;;;26.22;100.00;98941.25;5113293;28;20192;-79
2023/07/12 04:20:40;;;;;;;3.80;1.15;;;;;;;26.11;100.00;98934.56;5084952;28;20199;-77
2023/07/12 04:23:07;;;;;;;1.88;1.40;;;;;;;25.94;100.00;98923.75;5114944;28;20194;-77
2023/07/12 04:25:33;;;;;;;2.80;1.30;;;;;;;26.21;100.00;98919.63;5099279;28;20250;-76
2023/07/12 04:28:00;;;;;;;3.42;1.15;;;;;;;26.39;100.00;98921.03;5115049;28;20623;-76
2023/07/12 04:30:27;;;;;;;2.53;1.02;;;;;;;26.32;100.00;98920.00;5114646;28;20215;-76
2023/07/12 04:32:53;;;;;;;2.50;1.45;;;;;;;26.46;100.00;98935.00;5108806;28;20299;-76
2023/07/12 04:35:20;;;;;;;3.67;1.70;;;;;;;26.29;100.00;98933.25;5113283;28;20207;-75
2023/07/12 04:37:48;;;;;;;3.47;1.20;;;;;;;26.14;100.00;98933.88;5109078;28;20597;-76
2023/07/12 04:40:15;;;;;;;4.20;1.35;;;;;;;25.96;100.00;98924.22;5110326;28;20198;-77
2023/07/12 04:42:43;;;;;;;2.65;1.35;;;;;;;25.87;100.00;98923.50;5111708;28;20279;-76
2023/07/12 04:45:12;;;;;;;2.28;1.23;;;;;;;25.75;100.00;98918.78;5113709;28;20200;-75
2023/07/12 04:47:42;;;;;;;2.70;1.05;;;;;;;25.71;100.00;98917.81;5081886;28;20565;-77
2023/07/12 04:50:12;;;;;;;2.08;1.15;;;;;;;25.60;100.00;98902.91;5114107;28;20207;-77
2023/07/12 04:52:39;;;;;;;3.63;1.30;;;;;;;25.53;100.00;98899.88;5114332;28;20215;-77
2023/07/12 04:55:20;;;;;;;2.90;1.60;;;;;;;25.48;100.00;98912.97;5114428;28;20192;-76
2023/07/12 04:57:46;;;;;;;3.25;1.20;;;;;;;25.34;100.00;98916.78;5083073;28;20195;-77
2023/07/12 05:00:13;;;;;;;2.78;1.40;;;;;;;25.21;100.00;98937.03;5113950;28;20274;-76
2023/07/12 05:02:41;;;;;;;5.20;1.60;;;;;;;25.11;100.00;98925.66;5106928;28;20252;-76
2023/07/12 05:05:07;;;;;;;6.13;1.55;;;;;;;25.07;100.00;98920.03;5113998;28;20239;-77
2023/07/12 05:07:34;;;;;;;2.30;1.20;;;;;;;25.08;100.00;98921.66;5107890;28;20679;-77
2023/07/12 05:10:03;;;;;;;2.85;1.45;;;;;;;25.09;100.00;98934.22;5113658;28;20192;-76
2023/07/12 05:12:30;;;;;;;5.40;1.60;;;;;;;25.11;100.00;98937.44;5113135;28;20242;-76
2023/07/12 05:14:57;;;;;;;5.68;2.22;;;;;;;25.05;100.00;98930.56;5111498;28;20184;-75
2023/07/12 05:17:23;;;;;;;2.63;1.60;;;;;;;24.94;100.00;98932.06;5113444;28;20317;-77
2023/07/12 05:19:50;;;;;;;3.30;1.50;;;;;;;24.89;100.00;98929.50;5105465;28;20222;-75
2023/07/12 05:22:16;;;;;;;4.03;1.40;;;;;;;24.94;100.00;98924.63;5100547;28;20191;-78
2023/07/12 05:24:43;;;;;;;4.57;1.60;;;;;;;24.95;100.00;98931.72;5113325;28;20196;-77
2023/07/12 05:27:10;;;;;;;4.72;1.70;;;;;;;24.95;100.00;98931.72;5113128;28;20219;-76
2023/07/12 05:29:36;;;;;;;2.53;1.40;;;;;;;25.09;100.00;98945.19;5113243;28;20203;-77
2023/07/12 05:32:03;;;;;;;5.10;1.50;;;;;;;25.11;100.00;98942.09;5111497;28;20662;-78
2023/07/12 05:34:30;;;;;;;5.10;1.45;;;;;;;25.07;100.00;98917.31;5103856;28;20253;-76
2023/07/12 05:36:57;;;;;;;2.13;1.70;;;;;;;24.94;100.00;98924.63;5108439;28;20204;-76
2023/07/12 05:39:23;;;;;;;3.47;1.30;;;;;;;25.53;100.00;98932.78;5102345;28;20212;-75
2023/07/12 05:41:50;;;;;;;3.45;1.70;;;;;;;26.06;100.00;98922.97;5092034;28;20214;-75
2023/07/12 05:44:17;;;;;;;4.60;1.42;;;;;;;26.61;100.00;98923.34;5097461;28;20246;-78
2023/07/12 05:46:43;;;;;;;5.25;1.80;;;;;;;26.99;100.00;98923.03;5110848;28;20215;-76
2023/07/12 05:49:10;;;;;;;2.42;1.63;;;;;;;27.33;100.00;98935.50;5112238;28;20639;-75
2023/07/12 05:51:37;;;;;;;3.60;1.40;;;;;;;27.50;100.00;98943.50;5105465;28;20311;-76
2023/07/12 05:54:03;;;;;;;3.75;1.67;;;;;;;27.76;100.00;98956.84;5111004;28;20269;-76
2023/07/12 05:56:30;;;;;;;4.05;1.48;;;;;;;28.11;100.00;98970.03;5112151;28;20244;-75
2023/07/12 05:58:56;;;;;;;2.33;1.58;;;;;;;28.27;100.00;98957.13;5112575;28;20188;-78
2023/07/12 06:01:23;;;;;;;3.72;1.60;;;;;;;28.33;100.00;98953.75;5111106;28;20982;-79
2023/07/12 06:03:50;;;;;;;4.20;1.63;;;;;;;28.22;100.00;98938.91;5112459;28;20260;-78
2023/07/12 06:06:17;;;;;;;4.15;1.70;;;;;;;28.16;100.00;98918.28;5109225;28;20204;-75
2023/07/12 06:08:45;;;;;;;3.85;1.90;;;;;;;27.98;100.00;98923.28;5107392;28;20221;-76
2023/07/12 06:11:12;;;;;;;4.13;1.60;;;;;;;27.95;100.00;98917.66;5107255;28;20233;-76
2023/07/12 06:13:39;;;;;;;5.65;1.60;;;;;;;27.97;100.00;98935.44;5109450;28;20219;-75
2023/07/12 06:16:06;;;;;;;5.15;1.98;;;;;;;28.26;100.00;98939.00;5112387;28;20207;-76
2023/07/12 06:18:32;;;;;;;3.35;1.60;;;;;;;28.57;100.00;98929.94;5093312;28;20286;-75
2023/07/12 06:21:01;;;;;;;5.00;1.80;;;;;;;28.85;100.00;98937.00;5106077;28;20230;-80
2023/07/12 06:23:29;;;;;;;4.32;2.00;;;;;;;29.04;100.00;98939.03;5111289;28;20248;-75
2023/07/12 06:25:57;;;;;;;2.63;1.60;;;;;;;28.88;98.96;98930.75;5102427;28;20200;-75
2023/07/12 06:28:24;;;;;;;2.53;1.50;;;;;;;28.96;98.24;98937.25;5109054;28;20192;-79
2023/07/12 06:30:51;;;;;;;3.15;1.60;;;;;;;29.16;96.39;98932.59;5097566;28;20226;-78
2023/07/12 06:33:18;;;;;;;1.90;1.70;;;;;;;29.34;95.06;98941.31;5096572;28;20216;-77
2023/07/12 06:35:45;;;;;;;3.10;1.60;;;;;;;29.54;93.43;98940.16;5095298;28;20614;-76
2023/07/12 06:38:12;;;;;;;3.40;1.80;;;;;;;29.50;94.36;98951.13;5092729;28;20249;-78
2023/07/12 06:40:39;;;;;;;2.15;1.27;;;;;;;29.63;93.32;98962.84;5098549;28;20283;-77
2023/07/12 06:43:05;;;;;;;1.80;1.48;;;;;;;29.81;91.38;98955.75;5102605;28;20230;-75
2023/07/12 06:45:32;;;;;;;6.13;1.80;;;;;;;29.72;90.09;98957.94;5090810;28;20196;-75
2023/07/12 06:47:58;;;;;;;2.17;1.27;;;;;;;29.92;89.04;98970.59;5098011;28;20188;-78
2023/07/12 06:50:25;;;;;;;4.10;1.30;;;;;;;30.10;87.52;98965.41;5094106;28;20283;-78
2023/07/12 06:52:52;;;;;;;3.25;1.58;;;;;;;30.32;86.88;98972.16;5085580;28;20295;-79
2023/07/12 06:55:19;;;;;;;4.43;1.65;;;;;;;30.64;86.34;98970.00;5093600;28;20295;-78
2023/07/12 06:57:46;;;;;;;2.22;1.52;;;;;;;30.77;83.92;98965.88;5101095;28;20703;-77
2023/07/12 07:00:13;;;;;;;4.82;1.60;;;;;;;31.01;83.11;98966.31;5099926;28;20609;-78
2023/07/12 07:02:40;;;;;;;2.45;1.50;;;;;;;30.87;84.60;98968.03;5105978;28;20223;-79
2023/07/12 07:05:07;;;;;;;5.20;1.60;;;;;;;30.68;83.32;98960.59;5103138;28;20228;-78
2023/07/12 07:07:33;;;;;;;3.83;1.45;;;;;;;30.42;83.41;98960.50;5105808;28;20271;-78
2023/07/12 07:10:00;;;;;;;1.88;1.67;;;;;;;30.24;84.06;98964.88;5098030;28;20629;-79
2023/07/12 07:12:28;;;;;;;5.13;1.67;;;;;;;30.10;84.59;98962.66;5096360;28;20219;-79
2023/07/12 07:14:55;;;;;;;5.13;1.60;;;;;;;30.04;84.43;98962.16;5098520;28;20274;-78
2023/07/12 07:17:21;;;;;;;2.72;1.42;;;;;;;30.12;86.53;98963.91;5109854;28;20338;-79
2023/07/12 07:19:48;;;;;;;2.40;1.40;;;;;;;30.59;88.39;98969.16;5106326;28;20187;-77
2023/07/12 07:22:15;;;;;;;5.07;1.60;;;;;;;31.06;86.69;98973.50;5111409;28;20586;-78
2023/07/12 07:24:41;;;;;;;2.65;1.52;;;;;;;31.41;83.15;98978.78;5107288;28;20199;-78
2023/07/12 07:27:08;;;;;;;5.35;2.03;;;;;;;31.55;81.13;98976.22;5094520;28;20663;-78
2023/07/12 07:29:36;;;;;;;4.82;1.92;;;;;;;31.51;80.52;98966.25;5101081;28;20774;-77
2023/07/12 07:32:02;;;;;;;5.50;2.30;;;;;;;31.28;80.10;98958.03;5091303;28;20563;-77
2023/07/12 07:34:33;;;;;;;4.82;2.63;;;;;;;30.67;80.29;98944.38;5090642;28;20213;-76
2023/07/12 07:37:00;;;;;;;3.97;2.85;;;;;;;30.46;81.28;98933.75;5094444;28;20298;-76
2023/07/12 07:39:27;;;;;;;3.50;2.45;;;;;;;30.30;82.77;98924.75;5091242;28;20208;-78
2023/07/12 07:41:54;;;;;;;5.88;2.47;;;;;;;30.35;84.76;98939.06;5100651;28;20203;-77
2023/07/12 07:44:20;;;;;;;6.32;2.80;;;;;;;30.26;86.11;98941.25;5110733;28;20207;-78
2023/07/12 07:46:47;;;;;;;6.00;2.67;;;;;;;30.11;86.91;98934.66;5114023;28;20245;-77
2023/07/12 07:49:14;;;;;;;3.03;2.72;;;;;;;30.10;88.26;98938.59;5091043;28;20204;-79
2023/07/12 07:51:41;;;;;;;4.60;3.03;;;;;;;30.17;89.42;98935.97;5111939;28;20197;-80
2023/07/12 07:54:07;;;;;;;5.55;2.65;;;;;;;30.37;90.22;98935.94;5108763;28;20203;-79
2023/07/12 07:56:34;;;;;;;8.57;2.95;;;;;;;30.45;87.58;98935.72;5110067;28;20671;-79
2023/07/12 07:59:01;;;;;;;5.38;3.00;;;;;;;30.32;86.95;98934.28;5111513;28;20191;-80
2023/07/12 08:01:27;;;;;;;6.85;3.03;;;;;;;29.83;91.02;98933.28;5111079;28;20230;-78
2023/07/12 08:03:55;;;;;;;4.57;3.00;;;;;;;29.82;96.00;98931.66;5103848;28;20654;-79
2023/07/12 08:06:22;;;;;;;7.75;3.30;;;;;;;29.44;95.73;98929.72;5101714;28;20706;-78
2023/07/12 08:08:49;;;;;;;7.53;3.70;;;;;;;28.99;100.00;98939.28;5106970;28;20220;-79
2023/07/12 08:11:16;;;;;;;7.65;3.55;;;;;;;29.30;99.08;98933.72;5109796;28;20196;-78
2023/07/12 08:13:42;;;;;;;5.57;3.30;;;;;;;29.68;94.93;98919.19;5105510;28;20217;-79
2023/07/12 08:16:09;;;;;;;4.45;3.53;;;;;;;29.87;93.70;98912.84;5108619;28;20208;-79
2023/07/12 08:18:38;;;;;;;6.32;3.67;;;;;;;30.00;94.74;98899.75;5095143;28;20573;-78
2023/07/12 08:21:05;;;;;;;6.30;3.53;;;;;;;30.35;94.63;98897.63;5101879;28;20197;-78
2023/07/12 08:23:32;;;;;;;4.47;3.92;;;;;;;30.55;93.83;98901.94;5098269;28;20204;-78
2023/07/12 08:25:58;;;;;;;6.07;4.03;;;;;;;30.72;92.17;98908.94;5107833;28;20199;-78
2023/07/12 08:28:25;;;;;;;5.10;3.58;;;;;;;30.84;90.32;98914.25;5103322;28;20212;-78
2023/07/12 08:30:52;;;;;;;8.02;4.40;;;;;;;31.03;90.38;98918.91;5103343;28;20615;-78
2023/07/12 08:33:18;;;;;;;6.72;4.03;;;;;;;31.35;90.17;98920.19;5103995;28;20247;-77
2023/07/12 08:35:45;;;;;;;6.05;3.90;;;;;;;31.56;88.44;98929.97;5112662;28;20611;-78
2023/07/12 08:38:16;;;;;;;7.28;4.25;;;;;;;31.43;89.12;98935.72;5113719;28;20194;-77
2023/07/12 08:40:46;;;;;;;6.88;4.30;;;;;;;31.58;90.10;98942.28;5113966;28;20203;-77
2023/07/12 08:43:18;;;;;;;9.15;4.15;;;;;;;30.96;91.04;98946.44;5113732;28;20569;-78
2023/07/12 08:45:47;;;;;;;6.50;4.15;;;;;;;31.04;91.30;98951.75;5094791;28;20202;-78
2023/07/12 08:48:19;;;;;;;7.63;4.15;;;;;;;30.96;89.93;98938.16;5095723;28;20188;-78
2023/07/12 08:50:47;;;;;;;8.43;4.00;;;;;;;31.24;89.84;98946.09;5113572;28;20219;-78
2023/07/12 08:53:17;;;;;;;8.10;4.40;;;;;;;31.62;86.77;98953.41;5097349;28;20217;-78
2023/07/12 08:55:44;;;;;;;7.65;4.20;;;;;;;31.99;87.38;98959.00;5096163;28;20569;-77
2023/07/12 08:58:26;;;;;;;7.05;4.20;;;;;;;32.42;82.35;98960.31;5114442;28;20245;-78
2023/07/12 09:01:06;;;;;;;5.30;4.32;;;;;;;32.90;81.58;98952.81;5091101;28;20214;-78
2023/07/12 09:03:33;;;;;;;7.22;4.50;;;;;;;33.40;79.18;98957.59;5096055;28;20229;-78
2023/07/12 09:06:00;;;;;;;7.45;4.47;;;;;;;33.70;77.11;98953.78;5106737;28;20299;-78
2023/07/12 09:08:39;;;;;;;8.15;4.50;;;;;;;33.28;79.10;98960.66;5104601;28;20200;-77
2023/07/12 09:11:18;;;;;;;6.97;4.30;;;;;;;33.71;76.60;98966.50;5111047;28;20192;-78
2023/07/12 09:13:46;;;;;;;5.22;4.28;;;;;;;33.80;74.92;98972.50;5093121;28;20204;-77
2023/07/12 09:16:31;;;;;;;4.90;4.40;;;;;;;33.43;74.70;98967.91;5106904;28;20223;-78
2023/07/12 09:19:01;;;;;;;6.35;4.35;;;;;;;33.63;75.07;98974.78;5077994;28;20647;-76
2023/07/12 09:21:32;;;;;;;7.38;4.95;;;;;;;33.14;76.53;98979.97;5087656;28;20192;-77
2023/07/12 09:24:05;;;;;;;5.28;4.43;;;;;;;32.26;76.28;98975.19;5104710;28;20286;-76
2023/07/12 09:26:32;;;;;;;7.22;4.55;;;;;;;32.87;76.53;98982.13;5108755;28;20200;-76
2023/07/12 09:29:05;;;;;;;6.30;4.75;;;;;;;33.23;75.33;98982.44;5110126;28;20180;-77
2023/07/12 09:31:34;;;;;;;7.50;4.32;;;;;;;33.27;72.99;98986.06;5108382;28;20196;-76
2023/07/12 09:34:05;;;;;;;9.60;4.35;;;;;;;33.68;73.43;98979.19;5109875;28;20686;-76
2023/07/12 09:36:38;;;;;;;4.82;4.40;;;;;;;34.02;73.22;98974.97;5107525;28;20195;-79
2023/07/12 09:39:08;;;;;;;6.30;4.10;;;;;;;34.31;71.51;98964.75;5107258;28;20267;-77
2023/07/12 09:41:35;;;;;;;6.88;4.35;;;;;;;32.97;74.86;98956.47;5089833;28;20618;-76
2023/07/12 09:44:02;;;;;;;6.78;4.00;;;;;;;33.31;73.32;98957.13;5113160;28;20196;-75
2023/07/12 09:46:37;;;;;;;6.03;3.95;;;;;;;33.71;71.63;98947.84;5113562;28;20658;-78
2023/07/12 09:49:12;;;;;;;10.02;4.15;;;;;;;33.91;68.49;98945.56;5112806;28;20184;-77
2023/07/12 09:51:39;;;;;;;6.30;4.00;;;;;;;33.93;68.68;98943.16;5113493;28;20244;-76
2023/07/12 09:54:19;;;;;;;5.32;3.70;;;;;;;34.55;67.87;98940.16;5112898;28;20204;-77
2023/07/12 09:56:52;;;;;;;6.82;3.78;;;;;;;35.29;66.91;98941.00;5109316;28;20693;-75
2023/07/12 09:59:25;;;;;;;6.75;4.13;;;;;;;35.80;66.51;98936.06;5112876;28;20191;-77
2023/07/12 10:02:12;;;;;;;6.63;4.32;;;;;;;35.40;63.56;98929.03;5112853;28;20261;-78
2023/07/12 10:04:44;;;;;;;5.35;3.85;;;;;;;36.01;64.86;98930.41;5112089;28;20223;-76
2023/07/12 10:07:29;;;;;;;6.97;4.28;;;;;;;35.91;63.71;98931.25;5108961;28;20279;-76
2023/07/12 10:09:56;;;;;;;13.35;4.85;;;;;;;35.71;63.38;98923.38;5112233;28;20315;-78
2023/07/12 10:12:46;;;;;;;7.28;3.95;;;;;;;35.62;63.24;98925.78;5112437;28;20275;-79
2023/07/12 10:15:14;;;;;;;7.72;3.55;;;;;;;35.75;60.96;98932.50;5099836;28;20235;-78
2023/07/12 10:17:42;;;;;;;7.90;3.85;;;;;;;34.96;62.22;98935.84;5103553;28;20762;-78
2023/07/12 10:20:17;;;;;;;8.48;4.00;;;;;;;34.58;64.35;98944.94;5101253;28;20316;-78
2023/07/12 10:22:45;;;;;;;5.15;3.72;;;;;;;34.26;63.69;98942.91;5081933;28;20240;-78
2023/07/12 10:25:14;;;;;;;7.00;3.70;;;;;;;34.21;62.49;98946.06;5096323;28;20271;-78
2023/07/12 10:27:46;;;;;;;5.35;3.58;;;;;;;34.31;62.89;98938.94;5101618;28;20188;-79
2023/07/12 10:30:22;;;;;;;7.30;3.80;;;;;;;33.31;67.21;98936.91;5078685;28;20222;-78
2023/07/12 10:32:52;;;;;;;5.05;3.80;;;;;;;33.69;65.77;98944.66;5083179;28;20186;-78
2023/07/12 10:35:22;;;;;;;8.13;3.72;;;;;;;33.85;66.60;98928.47;5078481;28;20221;-77
2023/07/12 10:38:09;;;;;;;5.05;3.58;;;;;;;33.64;66.15;98936.69;5084545;28;20199;-78
2023/07/12 10:40:40;;;;;;;4.65;3.40;;;;;;;34.00;65.45;98930.13;5085020;28;20221;-78
2023/07/12 10:43:21;;;;;;;6.72;3.45;;;;;;;33.50;63.20;98931.84;5093890;28;20210;-78
2023/07/12 10:45:50;;;;;;;6.93;3.60;;;;;;;33.69;64.33;98925.22;5094016;28;20278;-77
2023/07/12 10:48:22;;;;;;;4.03;2.90;;;;;;;34.03;62.47;98918.19;5093831;28;20239;-78
2023/07/12 10:50:50;;;;;;;5.63;3.40;;;;;;;33.25;62.30;98924.56;5093775;28;20183;-79
2023/07/12 10:53:25;;;;;;;5.88;3.58;;;;;;;33.23;65.65;98922.19;5081577;28;20671;-77
2023/07/12 10:56:08;;;;;;;6.40;3.03;;;;;;;33.49;63.53;98921.16;5101304;28;20206;-79
2023/07/12 10:58:53;;;;;;;5.03;3.42;;;;;;;34.29;62.29;98919.09;5108385;28;20199;-78
2023/07/12 11:01:45;;;;;;;5.93;3.03;;;;;;;34.49;61.76;98923.88;5093160;28;20191;-79
2023/07/12 11:04:15;;;;;;;6.53;2.92;;;;;;;35.04;60.09;98920.72;5097457;28;20272;-78
2023/07/12 11:07:07;;;;;;;4.65;3.03;;;;;;;35.54;57.41;98926.22;5093218;28;20188;-78
2023/07/12 11:09:43;;;;;;;4.57;2.45;;;;;;;36.18;55.73;98927.56;5105217;28;20200;-79
2023/07/12 11:12:25;;;;;;;3.83;2.53;;;;;;;36.32;54.08;98918.28;5112991;28;20284;-77
2023/07/12 11:14:53;;;;;;;5.97;2.80;;;;;;;36.59;55.74;98919.28;5110159;28;20280;-78
2023/07/12 11:17:22;;;;;;;8.38;3.13;;;;;;;36.78;55.24;98920.75;5097526;28;20219;-79
2023/07/12 11:20:15;;;;;;;6.72;2.45;;;;;;;36.54;52.63;98924.50;5095602;28;20191;-79
2023/07/12 11:22:51;;;;;;;2.95;2.33;;;;;;;36.68;52.20;98913.25;5097723;28;20191;-79
2023/07/12 11:25:31;;;;;;;3.55;2.40;;;;;;;36.87;52.61;98918.28;5115650;28;20663;-79
2023/07/12 11:28:03;;;;;;;4.18;2.38;;;;;;;37.13;52.82;98921.69;5115654;28;20198;-79
2023/07/12 11:30:33;;;;;;;3.65;2.75;;;;;;;35.92;53.57;98916.94;5116152;28;20206;-78
2023/07/12 11:33:15;;;;;;;3.20;2.45;;;;;;;36.30;51.45;98908.75;5115598;28;20196;-79
2023/07/12 11:35:46;;;;;;;3.15;2.28;;;;;;;36.97;49.73;98909.03;5115735;28;20215;-79